sensor_id;sensor_type;location;lat;lon;timestamp;pressure;altitude;pressure_sealevel;temperature;humidity
71791;BME280;59638;52.126;5.434;2023-03-18T00:00:21;100889.50;;;10.79;88.22
71791;BME280;59638;52.126;5.434;2023-03-18T00:02:47;100889.22;;;10.72;88.76
71791;BME280;59638;52.126;5.434;2023-03-18T00:05:15;100895.47;;;10.61;89.10
71791;BME280;59638;52.126;5.434;2023-03-18T00:07:41;100903.91;;;10.55;89.80
71791;BME280;59638;52.126;5.434;2023-03-18T00:10:09;100907.25;;;10.48;90.31
71791;BME280;59638;52.126;5.434;2023-03-18T00:12:40;100898.06;;;10.42;90.80
71791;BME280;59638;52.126;5.434;2023-03-18T00:15:09;100910.56;;;10.40;91.02
71791;BME280;59638;52.126;5.434;2023-03-18T00:17:36;100912.75;;;10.35;91.44
71791;BME280;59638;52.126;5.434;2023-03-18T00:20:04;100909.38;;;10.23;91.65
71791;BME280;59638;52.126;5.434;2023-03-18T00:22:36;100909.63;;;10.11;92.06
71791;BME280;59638;52.126;5.434;2023-03-18T00:25:04;100905.81;;;10.03;92.39
71791;BME280;59638;52.126;5.434;2023-03-18T00:27:32;100922.03;;;9.99;92.69
71791;BME280;59638;52.126;5.434;2023-03-18T00:30:00;100916.72;;;9.89;93.08
71791;BME280;59638;52.126;5.434;2023-03-18T00:32:27;100912.22;;;9.80;93.68
71791;BME280;59638;52.126;5.434;2023-03-18T00:34:54;100908.44;;;9.73;94.08
71791;BME280;59638;52.126;5.434;2023-03-18T00:37:23;100910.91;;;9.65;94.49
71791;BME280;59638;52.126;5.434;2023-03-18T00:40:06;100920.03;;;9.61;94.83
71791;BME280;59638;52.126;5.434;2023-03-18T00:42:37;100919.56;;;9.56;94.90
71791;BME280;59638;52.126;5.434;2023-03-18T00:45:07;100928.00;;;9.49;95.75
71791;BME280;59638;52.126;5.434;2023-03-18T00:47:34;100935.91;;;9.49;95.94
71791;BME280;59638;52.126;5.434;2023-03-18T00:50:01;100930.19;;;9.44;96.25
71791;BME280;59638;52.126;5.434;2023-03-18T00:52:28;100923.00;;;9.46;96.73
71791;BME280;59638;52.126;5.434;2023-03-18T00:54:57;100919.84;;;9.52;96.87
71791;BME280;59638;52.126;5.434;2023-03-18T00:57:24;100910.69;;;9.57;96.97
71791;BME280;59638;52.126;5.434;2023-03-18T00:59:50;100919.06;;;9.62;97.31
71791;BME280;59638;52.126;5.434;2023-03-18T01:02:17;100913.03;;;9.71;97.14
71791;BME280;59638;52.126;5.434;2023-03-18T01:04:44;100920.63;;;9.64;97.02
71791;BME280;59638;52.126;5.434;2023-03-18T01:07:10;100910.19;;;9.63;97.15
71791;BME280;59638;52.126;5.434;2023-03-18T01:09:37;100910.47;;;9.60;97.20
71791;BME280;59638;52.126;5.434;2023-03-18T01:12:07;100910.84;;;9.55;97.44
71791;BME280;59638;52.126;5.434;2023-03-18T01:14:35;100905.00;;;9.51;97.71
71791;BME280;59638;52.126;5.434;2023-03-18T01:17:02;100915.09;;;9.46;97.97
71791;BME280;59638;52.126;5.434;2023-03-18T01:19:29;100910.19;;;9.42;98.00
71791;BME280;59638;52.126;5.434;2023-03-18T01:21:56;100909.38;;;9.41;98.24
71791;BME280;59638;52.126;5.434;2023-03-18T01:24:22;100917.41;;;9.40;98.10
71791;BME280;59638;52.126;5.434;2023-03-18T01:26:49;100922.81;;;9.38;98.43
71791;BME280;59638;52.126;5.434;2023-03-18T01:29:15;100931.78;;;9.36;98.48
71791;BME280;59638;52.126;5.434;2023-03-18T01:31:42;100923.56;;;9.29;98.61
71791;BME280;59638;52.126;5.434;2023-03-18T01:34:10;100918.28;;;9.29;99.03
71791;BME280;59638;52.126;5.434;2023-03-18T01:36:37;100923.31;;;9.32;98.90
71791;BME280;59638;52.126;5.434;2023-03-18T01:39:03;100928.31;;;9.35;99.10
71791;BME280;59638;52.126;5.434;2023-03-18T01:41:31;100921.13;;;9.37;99.13
71791;BME280;59638;52.126;5.434;2023-03-18T01:43:58;100921.72;;;9.41;99.36
71791;BME280;59638;52.126;5.434;2023-03-18T01:48:57;100924.47;;;9.39;99.54
71791;BME280;59638;52.126;5.434;2023-03-18T01:51:26;100917.53;;;9.38;99.29
71791;BME280;59638;52.126;5.434;2023-03-18T01:53:53;100920.28;;;9.37;99.55
71791;BME280;59638;52.126;5.434;2023-03-18T01:56:22;100919.44;;;9.36;99.71
71791;BME280;59638;52.126;5.434;2023-03-18T01:58:51;100925.94;;;9.32;100.00
71791;BME280;59638;52.126;5.434;2023-03-18T02:01:23;100918.47;;;9.37;100.00
71791;BME280;59638;52.126;5.434;2023-03-18T02:03:52;100928.06;;;9.38;100.00
71791;BME280;59638;52.126;5.434;2023-03-18T02:06:19;100927.94;;;9.40;100.00
71791;BME280;59638;52.126;5.434;2023-03-18T02:08:45;100925.16;;;9.41;100.00
71791;BME280;59638;52.126;5.434;2023-03-18T02:11:13;100929.47;;;9.42;100.00
71791;BME280;59638;52.126;5.434;2023-03-18T02:13:41;100924.22;;;9.42;100.00
71791;BME280;59638;52.126;5.434;2023-03-18T02:16:23;100923.38;;;9.42;100.00
71791;BME280;59638;52.126;5.434;2023-03-18T02:18:53;100929.00;;;9.37;100.00
71791;BME280;59638;52.126;5.434;2023-03-18T02:21:45;100928.59;;;9.32;100.00
71791;BME280;59638;52.126;5.434;2023-03-18T02:27:03;100939.19;;;9.42;100.00
71791;BME280;59638;52.126;5.434;2023-03-18T02:29:34;100932.84;;;9.44;100.00
71791;BME280;59638;52.126;5.434;2023-03-18T02:32:04;100936.16;;;9.46;100.00
71791;BME280;59638;52.126;5.434;2023-03-18T02:34:32;100929.56;;;9.52;100.00
71791;BME280;59638;52.126;5.434;2023-03-18T02:37:00;100933.72;;;9.54;100.00
71791;BME280;59638;52.126;5.434;2023-03-18T02:39:27;100940.66;;;9.56;100.00
71791;BME280;59638;52.126;5.434;2023-03-18T02:41:56;100936.13;;;9.58;100.00
71791;BME280;59638;52.126;5.434;2023-03-18T02:44:23;100936.13;;;9.58;100.00
71791;BME280;59638;52.126;5.434;2023-03-18T02:46:58;100940.41;;;9.59;100.00
71791;BME280;59638;52.126;5.434;2023-03-18T02:49:26;100937.06;;;9.57;100.00
71791;BME280;59638;52.126;5.434;2023-03-18T02:51:53;100942.09;;;9.60;100.00
71791;BME280;59638;52.126;5.434;2023-03-18T02:54:23;100947.59;;;9.57;100.00
71791;BME280;59638;52.126;5.434;2023-03-18T02:56:50;100944.03;;;9.58;100.00
71791;BME280;59638;52.126;5.434;2023-03-18T02:59:18;100936.81;;;9.60;100.00
71791;BME280;59638;52.126;5.434;2023-03-18T03:01:46;100942.91;;;9.60;100.00
71791;BME280;59638;52.126;5.434;2023-03-18T03:04:14;100943.75;;;9.61;100.00
71791;BME280;59638;52.126;5.434;2023-03-18T03:06:40;100940.66;;;9.56;100.00
71791;BME280;59638;52.126;5.434;2023-03-18T03:09:09;100941.63;;;9.54;100.00
71791;BME280;59638;52.126;5.434;2023-03-18T03:11:36;100948.44;;;9.57;100.00
71791;BME280;59638;52.126;5.434;2023-03-18T03:14:03;100944.59;;;9.61;100.00
71791;BME280;59638;52.126;5.434;2023-03-18T03:16:29;100948.75;;;9.64;100.00
71791;BME280;59638;52.126;5.434;2023-03-18T03:18:57;100950.69;;;9.62;100.00
71791;BME280;59638;52.126;5.434;2023-03-18T03:21:24;100948.56;;;9.56;100.00
71791;BME280;59638;52.126;5.434;2023-03-18T03:23:50;100952.03;;;9.56;100.00
71791;BME280;59638;52.126;5.434;2023-03-18T03:26:17;100959.56;;;9.61;100.00
71791;BME280;59638;52.126;5.434;2023-03-18T03:28:44;100964.84;;;9.61;100.00
71791;BME280;59638;52.126;5.434;2023-03-18T03:31:11;100963.16;;;9.60;100.00
71791;BME280;59638;52.126;5.434;2023-03-18T03:33:39;100965.53;;;9.63;100.00
71791;BME280;59638;52.126;5.434;2023-03-18T03:36:09;100971.53;;;9.65;100.00
71791;BME280;59638;52.126;5.434;2023-03-18T03:38:35;100965.03;;;9.69;100.00
71791;BME280;59638;52.126;5.434;2023-03-18T03:41:02;100965.47;;;9.74;100.00
71791;BME280;59638;52.126;5.434;2023-03-18T03:43:28;100967.84;;;9.77;100.00
71791;BME280;59638;52.126;5.434;2023-03-18T03:45:55;100977.19;;;9.81;100.00
71791;BME280;59638;52.126;5.434;2023-03-18T03:48:21;100969.13;;;9.82;100.00
71791;BME280;59638;52.126;5.434;2023-03-18T03:50:49;100978.59;;;9.85;100.00
71791;BME280;59638;52.126;5.434;2023-03-18T03:53:16;100975.81;;;9.87;100.00
71791;BME280;59638;52.126;5.434;2023-03-18T03:55:43;100973.06;;;9.88;100.00
71791;BME280;59638;52.126;5.434;2023-03-18T03:58:09;100976.38;;;9.90;99.70
71791;BME280;59638;52.126;5.434;2023-03-18T04:00:36;100984.19;;;9.92;100.00
71791;BME280;59638;52.126;5.434;2023-03-18T04:03:03;100978.78;;;9.93;100.00
71791;BME280;59638;52.126;5.434;2023-03-18T04:05:30;100980.59;;;9.93;100.00
71791;BME280;59638;52.126;5.434;2023-03-18T04:07:56;100988.50;;;9.93;100.00
71791;BME280;59638;52.126;5.434;2023-03-18T04:10:26;100986.41;;;9.96;100.00
71791;BME280;59638;52.126;5.434;2023-03-18T04:12:53;100987.38;;;9.95;100.00
71791;BME280;59638;52.126;5.434;2023-03-18T04:15:20;100990.84;;;9.96;100.00
71791;BME280;59638;52.126;5.434;2023-03-18T04:17:48;100981.97;;;9.97;100.00
71791;BME280;59638;52.126;5.434;2023-03-18T04:20:15;100980.31;;;9.96;100.00
71791;BME280;59638;52.126;5.434;2023-03-18T04:22:43;100982.09;;;9.95;100.00
71791;BME280;59638;52.126;5.434;2023-03-18T04:25:10;100989.19;;;9.95;100.00
71791;BME280;59638;52.126;5.434;2023-03-18T04:27:37;100990.03;;;9.95;100.00
71791;BME280;59638;52.126;5.434;2023-03-18T04:30:06;100996.41;;;9.93;100.00
71791;BME280;59638;52.126;5.434;2023-03-18T04:32:33;100993.16;;;9.89;100.00
71791;BME280;59638;52.126;5.434;2023-03-18T04:35:00;100995.13;;;9.87;100.00
71791;BME280;59638;52.126;5.434;2023-03-18T04:37:26;100994.41;;;9.85;100.00
71791;BME280;59638;52.126;5.434;2023-03-18T04:39:52;100989.16;;;9.85;100.00
71791;BME280;59638;52.126;5.434;2023-03-18T04:42:19;100986.63;;;9.84;100.00
71791;BME280;59638;52.126;5.434;2023-03-18T04:44:46;100984.13;;;9.82;100.00
71791;BME280;59638;52.126;5.434;2023-03-18T04:47:12;100985.78;;;9.83;100.00
71791;BME280;59638;52.126;5.434;2023-03-18T04:49:39;100987.47;;;9.84;100.00
71791;BME280;59638;52.126;5.434;2023-03-18T04:52:06;100989.16;;;9.85;100.00
71791;BME280;59638;52.126;5.434;2023-03-18T04:54:33;100987.47;;;9.84;100.00
71791;BME280;59638;52.126;5.434;2023-03-18T04:56:59;100994.94;;;9.79;100.00
71791;BME280;59638;52.126;5.434;2023-03-18T04:59:26;100989.66;;;9.79;100.00
71791;BME280;59638;52.126;5.434;2023-03-18T05:01:53;100996.84;;;9.77;100.00
71791;BME280;59638;52.126;5.434;2023-03-18T05:04:19;100990.88;;;9.75;100.00
71791;BME280;59638;52.126;5.434;2023-03-18T05:06:46;100996.00;;;9.76;100.00
71791;BME280;59638;52.126;5.434;2023-03-18T05:09:12;101002.09;;;9.77;100.00
71791;BME280;59638;52.126;5.434;2023-03-18T05:11:38;100996.28;;;9.73;100.00
71791;BME280;59638;52.126;5.434;2023-03-18T05:14:06;101000.72;;;9.73;100.00
71791;BME280;59638;52.126;5.434;2023-03-18T05:16:32;101003.59;;;9.70;100.00
71791;BME280;59638;52.126;5.434;2023-03-18T05:18:59;101007.19;;;9.69;100.00
71791;BME280;59638;52.126;5.434;2023-03-18T05:21:25;101001.09;;;9.68;100.00
71791;BME280;59638;52.126;5.434;2023-03-18T05:23:54;101017.03;;;9.67;100.00
71791;BME280;59638;52.126;5.434;2023-03-18T05:26:21;101027.81;;;9.64;100.00
71791;BME280;59638;52.126;5.434;2023-03-18T05:28:48;101017.53;;;9.61;100.00
71791;BME280;59638;52.126;5.434;2023-03-18T05:31:14;101021.97;;;9.60;100.00
71791;BME280;59638;52.126;5.434;2023-03-18T05:33:41;101021.72;;;9.63;100.00
71791;BME280;59638;52.126;5.434;2023-03-18T05:36:08;101038.13;;;9.67;100.00
71791;BME280;59638;52.126;5.434;2023-03-18T05:38:34;101034.28;;;9.71;100.00
71791;BME280;59638;52.126;5.434;2023-03-18T05:41:01;101032.06;;;9.76;100.00
71791;BME280;59638;52.126;5.434;2023-03-18T05:43:28;101032.81;;;9.78;100.00
71791;BME280;59638;52.126;5.434;2023-03-18T05:45:54;101040.72;;;9.78;100.00
71791;BME280;59638;52.126;5.434;2023-03-18T05:48:21;101040.44;;;9.81;100.00
71791;BME280;59638;52.126;5.434;2023-03-18T05:50:47;101039.75;;;9.79;100.00
71791;BME280;59638;52.126;5.434;2023-03-18T05:53:13;101042.53;;;9.77;100.00
71791;BME280;59638;52.126;5.434;2023-03-18T05:55:42;101041.66;;;9.77;100.00
71791;BME280;59638;52.126;5.434;2023-03-18T05:58:09;101039.88;;;9.77;100.00
71791;BME280;59638;52.126;5.434;2023-03-18T06:00:36;101042.38;;;9.79;100.00
71791;BME280;59638;52.126;5.434;2023-03-18T06:03:03;101034.34;;;9.80;100.00
71791;BME280;59638;52.126;5.434;2023-03-18T06:05:30;101044.75;;;9.82;100.00
71791;BME280;59638;52.126;5.434;2023-03-18T06:07:57;101050.84;;;9.82;100.00
71791;BME280;59638;52.126;5.434;2023-03-18T06:10:24;101052.78;;;9.80;100.00
71791;BME280;59638;52.126;5.434;2023-03-18T06:12:51;101056.25;;;9.81;100.00
71791;BME280;59638;52.126;5.434;2023-03-18T06:15:18;101058.66;;;9.84;100.00
71791;BME280;59638;52.126;5.434;2023-03-18T06:17:44;101062.84;;;9.87;100.00
71791;BME280;59638;52.126;5.434;2023-03-18T06:20:12;101065.34;;;9.88;100.00
71791;BME280;59638;52.126;5.434;2023-03-18T06:22:40;101054.78;;;9.88;100.00
71791;BME280;59638;52.126;5.434;2023-03-18T06:25:07;101055.75;;;9.87;100.00
71791;BME280;59638;52.126;5.434;2023-03-18T06:27:34;101056.59;;;9.88;100.00
71791;BME280;59638;52.126;5.434;2023-03-18T06:30:01;101062.69;;;9.88;100.00
71791;BME280;59638;52.126;5.434;2023-03-18T06:32:30;101067.13;;;9.88;100.00
71791;BME280;59638;52.126;5.434;2023-03-18T06:34:56;101083.78;;;9.88;100.00
71791;BME280;59638;52.126;5.434;2023-03-18T06:37:23;101085.47;;;9.89;100.00
71791;BME280;59638;52.126;5.434;2023-03-18T06:39:50;101088.81;;;9.91;100.00
71791;BME280;59638;52.126;5.434;2023-03-18T06:42:16;101093.84;;;9.94;100.00
71791;BME280;59638;52.126;5.434;2023-03-18T06:44:43;101096.34;;;9.96;100.00
71791;BME280;59638;52.126;5.434;2023-03-18T06:47:19;101096.94;;;9.99;100.00
71791;BME280;59638;52.126;5.434;2023-03-18T06:49:48;101093.78;;;10.05;100.00
71791;BME280;59638;52.126;5.434;2023-03-18T06:52:15;101093.13;;;10.13;100.00
71791;BME280;59638;52.126;5.434;2023-03-18T06:54:42;101090.81;;;10.20;100.00
71791;BME280;59638;52.126;5.434;2023-03-18T06:57:10;101091.19;;;10.26;100.00
71791;BME280;59638;52.126;5.434;2023-03-18T06:59:37;101095.81;;;10.34;100.00
71791;BME280;59638;52.126;5.434;2023-03-18T07:02:04;101089.16;;;10.40;100.00
71791;BME280;59638;52.126;5.434;2023-03-18T07:04:31;101102.81;;;10.45;100.00
71791;BME280;59638;52.126;5.434;2023-03-18T07:06:59;101103.66;;;10.45;100.00
71791;BME280;59638;52.126;5.434;2023-03-18T07:09:26;101113.41;;;10.54;100.00
71791;BME280;59638;52.126;5.434;2023-03-18T07:11:52;101107.38;;;10.64;100.00
71791;BME280;59638;52.126;5.434;2023-03-18T07:14:19;101110.31;;;10.70;100.00
71791;BME280;59638;52.126;5.434;2023-03-18T07:16:45;101123.53;;;10.80;100.00
71791;BME280;59638;52.126;5.434;2023-03-18T07:19:12;101109.53;;;10.89;100.00
71791;BME280;59638;52.126;5.434;2023-03-18T07:21:38;101122.75;;;10.89;100.00
71791;BME280;59638;52.126;5.434;2023-03-18T07:24:08;101131.22;;;10.83;100.00
71791;BME280;59638;52.126;5.434;2023-03-18T07:26:35;101120.75;;;10.72;100.00
71791;BME280;59638;52.126;5.434;2023-03-18T07:29:03;101122.38;;;10.63;100.00
71791;BME280;59638;52.126;5.434;2023-03-18T07:31:29;101129.00;;;10.57;100.00
71791;BME280;59638;52.126;5.434;2023-03-18T07:33:56;101134.91;;;10.71;100.00
71791;BME280;59638;52.126;5.434;2023-03-18T07:36:23;101135.91;;;10.79;100.00
71791;BME280;59638;52.126;5.434;2023-03-18T07:38:50;101132.59;;;11.27;100.00
71791;BME280;59638;52.126;5.434;2023-03-18T07:41:17;101129.94;;;12.16;100.00
71791;BME280;59638;52.126;5.434;2023-03-18T07:43:43;101132.66;;;12.53;100.00
71791;BME280;59638;52.126;5.434;2023-03-18T07:46:10;101141.28;;;12.65;100.00
71791;BME280;59638;52.126;5.434;2023-03-18T07:48:36;101139.91;;;12.51;99.35
71791;BME280;59638;52.126;5.434;2023-03-18T07:51:03;101145.66;;;12.37;99.87
71791;BME280;59638;52.126;5.434;2023-03-18T07:53:29;101146.75;;;12.34;99.17
71791;BME280;59638;52.126;5.434;2023-03-18T07:55:55;101146.66;;;12.16;100.00
71791;BME280;59638;52.126;5.434;2023-03-18T07:58:22;101150.69;;;12.01;100.00
71791;BME280;59638;52.126;5.434;2023-03-18T08:00:51;101153.59;;;11.88;100.00
71791;BME280;59638;52.126;5.434;2023-03-18T08:03:17;101150.69;;;11.82;100.00
71791;BME280;59638;52.126;5.434;2023-03-18T08:05:44;101145.00;;;11.96;100.00
71791;BME280;59638;52.126;5.434;2023-03-18T08:08:10;101146.09;;;12.32;100.00
71791;BME280;59638;52.126;5.434;2023-03-18T08:10:37;101134.88;;;13.32;98.26
71791;BME280;59638;52.126;5.434;2023-03-18T08:13:03;101134.56;;;14.86;90.89
71791;BME280;59638;52.126;5.434;2023-03-18T08:15:30;101127.97;;;15.57;88.66
71791;BME280;59638;52.126;5.434;2023-03-18T08:17:57;101135.53;;;16.51;81.36
71791;BME280;59638;52.126;5.434;2023-03-18T08:20:23;101132.38;;;15.82;82.41
71791;BME280;59638;52.126;5.434;2023-03-18T08:22:50;101136.38;;;16.51;81.09
71791;BME280;59638;52.126;5.434;2023-03-18T08:25:16;101140.66;;;16.61;78.88
71791;BME280;59638;52.126;5.434;2023-03-18T08:27:43;101139.00;;;16.59;79.81
71791;BME280;59638;52.126;5.434;2023-03-18T08:30:10;101137.34;;;17.53;76.14
71791;BME280;59638;52.126;5.434;2023-03-18T08:32:36;101127.19;;;17.80;71.92
71791;BME280;59638;52.126;5.434;2023-03-18T08:35:03;101126.56;;;18.15;71.32
71791;BME280;59638;52.126;5.434;2023-03-18T08:37:30;101122.78;;;18.10;72.60
71791;BME280;59638;52.126;5.434;2023-03-18T08:39:56;101124.81;;;17.85;72.05
71791;BME280;59638;52.126;5.434;2023-03-18T08:42:23;101129.00;;;18.02;72.51
71791;BME280;59638;52.126;5.434;2023-03-18T08:44:50;101128.41;;;18.67;68.90
71791;BME280;59638;52.126;5.434;2023-03-18T08:47:16;101137.31;;;18.83;68.18
71791;BME280;59638;52.126;5.434;2023-03-18T08:49:43;101131.69;;;18.40;70.65
71791;BME280;59638;52.126;5.434;2023-03-18T08:52:09;101128.88;;;18.56;70.27
71791;BME280;59638;52.126;5.434;2023-03-18T08:54:37;101135.72;;;19.03;68.09
71791;BME280;59638;52.126;5.434;2023-03-18T08:57:04;101130.81;;;18.62;68.03
71791;BME280;59638;52.126;5.434;2023-03-18T08:59:30;101131.56;;;18.18;70.44
71791;BME280;59638;52.126;5.434;2023-03-18T09:01:57;101140.84;;;19.19;67.44
71791;BME280;59638;52.126;5.434;2023-03-18T09:04:23;101131.19;;;19.69;65.11
71791;BME280;59638;52.126;5.434;2023-03-18T09:06:51;101133.16;;;20.31;64.99
71791;BME280;59638;52.126;5.434;2023-03-18T09:09:17;101129.69;;;20.94;61.92
71791;BME280;59638;52.126;5.434;2023-03-18T09:11:43;101136.31;;;20.35;62.02
71791;BME280;59638;52.126;5.434;2023-03-18T09:14:11;101149.38;;;18.03;66.89
71791;BME280;59638;52.126;5.434;2023-03-18T09:16:39;101151.16;;;16.54;71.71
71791;BME280;59638;52.126;5.434;2023-03-18T09:19:05;101149.88;;;16.01;72.85
71791;BME280;59638;52.126;5.434;2023-03-18T09:21:32;101151.94;;;15.14;76.32
71791;BME280;59638;52.126;5.434;2023-03-18T09:23:58;101153.03;;;16.45;74.66
71791;BME280;59638;52.126;5.434;2023-03-18T09:26:25;101160.03;;;16.14;74.61
71791;BME280;59638;52.126;5.434;2023-03-18T09:28:51;101166.00;;;16.40;74.47
71791;BME280;59638;52.126;5.434;2023-03-18T09:31:18;101163.72;;;17.17;71.05
71791;BME280;59638;52.126;5.434;2023-03-18T09:33:45;101163.25;;;15.59;74.88
71791;BME280;59638;52.126;5.434;2023-03-18T09:36:12;101174.41;;;14.86;77.88
71791;BME280;59638;52.126;5.434;2023-03-18T09:38:39;101164.88;;;15.51;78.69
71791;BME280;59638;52.126;5.434;2023-03-18T09:41:34;101174.00;;;16.65;73.38
71791;BME280;59638;52.126;5.434;2023-03-18T09:46:57;101170.31;;;16.49;74.12
71791;BME280;59638;52.126;5.434;2023-03-18T09:52:44;101164.38;;;18.65;69.03
71791;BME280;59638;52.126;5.434;2023-03-18T09:55:26;101170.75;;;19.08;65.75
71791;BME280;59638;52.126;5.434;2023-03-18T09:57:58;101177.44;;;18.60;66.59
71791;BME280;59638;52.126;5.434;2023-03-18T10:00:31;101177.59;;;19.25;65.34
71791;BME280;59638;52.126;5.434;2023-03-18T10:03:05;101173.88;;;19.26;63.01
71791;BME280;59638;52.126;5.434;2023-03-18T10:05:45;101182.34;;;18.56;65.98
71791;BME280;59638;52.126;5.434;2023-03-18T10:08:29;101184.75;;;19.69;64.22
71791;BME280;59638;52.126;5.434;2023-03-18T10:11:05;101172.75;;;20.51;61.12
71791;BME280;59638;52.126;5.434;2023-03-18T10:13:43;101178.25;;;20.21;62.35
71791;BME280;59638;52.126;5.434;2023-03-18T10:16:13;101176.44;;;20.07;61.55
71791;BME280;59638;52.126;5.434;2023-03-18T10:18:43;101185.88;;;19.31;63.96
71791;BME280;59638;52.126;5.434;2023-03-18T10:24:01;101187.81;;;20.52;61.40
71791;BME280;59638;52.126;5.434;2023-03-18T10:26:51;101189.88;;;19.35;62.64
71791;BME280;59638;52.126;5.434;2023-03-18T10:30:08;101179.06;;;19.13;63.58
71791;BME280;59638;52.126;5.434;2023-03-18T10:32:30;101182.94;;;19.25;64.15
71791;BME280;59638;52.126;5.434;2023-03-18T10:35:30;101174.53;;;19.79;62.35
71791;BME280;59638;52.126;5.434;2023-03-18T10:38:11;101174.44;;;20.09;62.17
71791;BME280;59638;52.126;5.434;2023-03-18T10:40:42;101177.22;;;21.00;59.28
71791;BME280;59638;52.126;5.434;2023-03-18T10:43:16;101180.94;;;21.05;59.03
71791;BME280;59638;52.126;5.434;2023-03-18T10:45:44;101175.03;;;19.53;62.94
71791;BME280;59638;52.126;5.434;2023-03-18T10:48:18;101175.38;;;20.72;60.36
71791;BME280;59638;52.126;5.434;2023-03-18T10:54:05;101166.25;;;19.96;60.16
71791;BME280;59638;52.126;5.434;2023-03-18T10:56:36;101169.44;;;19.85;60.73
71791;BME280;59638;52.126;5.434;2023-03-18T10:59:14;101165.84;;;20.42;58.75
71791;BME280;59638;52.126;5.434;2023-03-18T11:01:46;101160.66;;;22.32;54.97
71791;BME280;59638;52.126;5.434;2023-03-18T11:04:15;101159.44;;;22.47;54.09
71791;BME280;59638;52.126;5.434;2023-03-18T11:09:18;101160.06;;;22.36;54.24
71791;BME280;59638;52.126;5.434;2023-03-18T11:11:47;101171.31;;;21.24;55.10
71791;BME280;59638;52.126;5.434;2023-03-18T11:14:18;101174.72;;;19.99;57.88
71791;BME280;59638;52.126;5.434;2023-03-18T11:16:56;101173.19;;;19.03;60.59
71791;BME280;59638;52.126;5.434;2023-03-18T11:21:59;101178.03;;;17.55;65.03
71791;BME280;59638;52.126;5.434;2023-03-18T11:24:27;101180.25;;;16.96;67.75
71791;BME280;59638;52.126;5.434;2023-03-18T11:29:48;101172.19;;;16.33;70.65
71791;BME280;59638;52.126;5.434;2023-03-18T11:32:27;101174.97;;;16.64;69.49
71791;BME280;59638;52.126;5.434;2023-03-18T11:34:59;101180.97;;;16.66;70.78
71791;BME280;59638;52.126;5.434;2023-03-18T11:37:35;101181.66;;;16.59;70.56
71791;BME280;59638;52.126;5.434;2023-03-18T11:40:22;101174.69;;;16.26;70.53
71791;BME280;59638;52.126;5.434;2023-03-18T11:42:56;101184.13;;;16.04;71.38
71791;BME280;59638;52.126;5.434;2023-03-18T11:45:34;101183.59;;;15.84;72.12
71791;BME280;59638;52.126;5.434;2023-03-18T11:48:05;101179.28;;;15.83;72.34
71791;BME280;59638;52.126;5.434;2023-03-18T11:50:41;101177.31;;;15.85;72.33
71791;BME280;59638;52.126;5.434;2023-03-18T11:53:26;101172.31;;;15.82;72.16
71791;BME280;59638;52.126;5.434;2023-03-18T11:56:06;101179.25;;;15.67;72.08
71791;BME280;59638;52.126;5.434;2023-03-18T12:10:15;101164.91;;;15.60;73.14
71791;BME280;59638;52.126;5.434;2023-03-18T12:12:57;101159.16;;;15.89;73.51
71791;BME280;59638;52.126;5.434;2023-03-18T12:21:48;101156.31;;;16.64;70.94
71791;BME280;59638;52.126;5.434;2023-03-18T12:27:08;101163.34;;;16.32;70.77
71791;BME280;59638;52.126;5.434;2023-03-18T12:29:57;101169.69;;;16.39;71.25
71791;BME280;59638;52.126;5.434;2023-03-18T12:43:42;101169.09;;;15.62;72.33
71791;BME280;59638;52.126;5.434;2023-03-18T12:46:38;101175.50;;;15.43;73.73
71791;BME280;59638;52.126;5.434;2023-03-18T12:49:14;101162.84;;;15.37;72.74
71791;BME280;59638;52.126;5.434;2023-03-18T12:54:38;101174.81;;;15.33;72.91
71791;BME280;59638;52.126;5.434;2023-03-18T12:57:11;101173.81;;;15.34;73.60
71791;BME280;59638;52.126;5.434;2023-03-18T12:59:50;101172.63;;;15.29;73.22
71791;BME280;59638;52.126;5.434;2023-03-18T13:05:17;101167.63;;;14.91;73.50
71791;BME280;59638;52.126;5.434;2023-03-18T13:07:53;101167.31;;;14.94;73.70
71791;BME280;59638;52.126;5.434;2023-03-18T13:10:29;101166.94;;;14.89;73.85
71791;BME280;59638;52.126;5.434;2023-03-18T13:13:02;101171.59;;;14.87;74.13
71791;BME280;59638;52.126;5.434;2023-03-18T13:15:37;101167.75;;;14.82;74.48
71791;BME280;59638;52.126;5.434;2023-03-18T13:18:14;101170.50;;;14.72;75.11
71791;BME280;59638;52.126;5.434;2023-03-18T13:20:42;101170.44;;;14.64;76.14
71791;BME280;59638;52.126;5.434;2023-03-18T13:23:24;101178.47;;;14.46;77.72
71791;BME280;59638;52.126;5.434;2023-03-18T13:31:34;101171.53;;;13.64;84.31
71791;BME280;59638;52.126;5.434;2023-03-18T13:37:09;101175.59;;;13.41;88.44
71791;BME280;59638;52.126;5.434;2023-03-18T13:42:43;101169.28;;;14.05;89.14
71791;BME280;59638;52.126;5.434;2023-03-18T13:45:37;101164.19;;;14.47;89.02
71791;BME280;59638;52.126;5.434;2023-03-18T13:48:10;101167.75;;;14.56;88.93
71791;BME280;59638;52.126;5.434;2023-03-18T13:50:40;101169.53;;;14.73;88.71
71791;BME280;59638;52.126;5.434;2023-03-18T13:53:24;101164.09;;;14.57;87.71
71791;BME280;59638;52.126;5.434;2023-03-18T13:56:00;101165.75;;;14.58;87.14
71791;BME280;59638;52.126;5.434;2023-03-18T13:58:35;101172.44;;;14.62;87.16
71791;BME280;59638;52.126;5.434;2023-03-18T14:01:27;101159.81;;;14.64;86.44
71791;BME280;59638;52.126;5.434;2023-03-18T14:03:58;101158.25;;;14.79;86.70
71791;BME280;59638;52.126;5.434;2023-03-18T14:09:21;101157.22;;;15.40;85.38
71791;BME280;59638;52.126;5.434;2023-03-18T14:11:51;101152.53;;;15.42;82.47
71791;BME280;59638;52.126;5.434;2023-03-18T14:14:40;101144.84;;;15.31;83.17
71791;BME280;59638;52.126;5.434;2023-03-18T14:17:29;101144.38;;;15.36;82.45
71791;BME280;59638;52.126;5.434;2023-03-18T14:22:41;101146.63;;;15.14;81.47